sensor_id;sensor_type;location;lat;lon;timestamp;P1;durP1;ratioP1;P2;durP2;ratioP2
75152;SDS011;63734;45.218;36.708;2023-02-22T00:00:50;4.43;;;0.73;;
75152;SDS011;63734;45.218;36.708;2023-02-22T00:03:18;2.60;;;0.90;;
75152;SDS011;63734;45.218;36.708;2023-02-22T00:05:56;1.30;;;0.95;;
75152;SDS011;63734;45.218;36.708;2023-02-22T00:08:25;2.13;;;0.70;;
75152;SDS011;63734;45.218;36.708;2023-02-22T00:10:58;1.98;;;0.70;;
75152;SDS011;63734;45.218;36.708;2023-02-22T00:13:25;0.68;;;0.68;;
75152;SDS011;63734;45.218;36.708;2023-02-22T00:15:55;4.25;;;1.30;;
75152;SDS011;63734;45.218;36.708;2023-02-22T00:18:23;1.33;;;0.70;;
75152;SDS011;63734;45.218;36.708;2023-02-22T00:20:52;1.13;;;0.70;;
75152;SDS011;63734;45.218;36.708;2023-02-22T00:23:20;2.53;;;0.70;;
75152;SDS011;63734;45.218;36.708;2023-02-22T00:25:48;0.57;;;0.57;;
75152;SDS011;63734;45.218;36.708;2023-02-22T00:28:15;3.78;;;1.08;;
75152;SDS011;63734;45.218;36.708;2023-02-22T00:30:42;2.25;;;0.80;;
75152;SDS011;63734;45.218;36.708;2023-02-22T00:33:09;2.50;;;0.95;;
75152;SDS011;63734;45.218;36.708;2023-02-22T00:35:36;3.55;;;1.00;;
75152;SDS011;63734;45.218;36.708;2023-02-22T00:38:02;0.70;;;0.70;;
75152;SDS011;63734;45.218;36.708;2023-02-22T00:40:30;5.15;;;0.93;;
75152;SDS011;63734;45.218;36.708;2023-02-22T00:42:58;2.58;;;0.82;;
75152;SDS011;63734;45.218;36.708;2023-02-22T00:45:26;1.05;;;0.50;;
75152;SDS011;63734;45.218;36.708;2023-02-22T00:47:54;1.58;;;0.95;;
75152;SDS011;63734;45.218;36.708;2023-02-22T00:50:21;4.20;;;1.15;;
75152;SDS011;63734;45.218;36.708;2023-02-22T00:52:49;3.28;;;0.80;;
75152;SDS011;63734;45.218;36.708;2023-02-22T00:55:17;2.45;;;0.90;;
75152;SDS011;63734;45.218;36.708;2023-02-22T00:57:45;2.10;;;0.57;;
75152;SDS011;63734;45.218;36.708;2023-02-22T01:00:21;1.80;;;0.80;;
75152;SDS011;63734;45.218;36.708;2023-02-22T01:02:50;1.23;;;0.40;;
75152;SDS011;63734;45.218;36.708;2023-02-22T01:05:18;0.95;;;0.77;;
75152;SDS011;63734;45.218;36.708;2023-02-22T01:07:45;0.98;;;0.57;;
75152;SDS011;63734;45.218;36.708;2023-02-22T01:10:14;2.75;;;0.90;;
75152;SDS011;63734;45.218;36.708;2023-02-22T01:12:41;0.60;;;0.60;;
75152;SDS011;63734;45.218;36.708;2023-02-22T01:15:09;1.10;;;0.40;;
75152;SDS011;63734;45.218;36.708;2023-02-22T01:17:37;1.85;;;0.70;;
75152;SDS011;63734;45.218;36.708;2023-02-22T01:20:05;1.25;;;0.50;;
75152;SDS011;63734;45.218;36.708;2023-02-22T01:22:36;3.92;;;1.00;;
75152;SDS011;63734;45.218;36.708;2023-02-22T01:25:07;0.82;;;0.82;;
75152;SDS011;63734;45.218;36.708;2023-02-22T01:27:37;0.30;;;0.30;;
75152;SDS011;63734;45.218;36.708;2023-02-22T01:30:04;4.93;;;0.70;;
75152;SDS011;63734;45.218;36.708;2023-02-22T01:32:34;3.30;;;0.85;;
75152;SDS011;63734;45.218;36.708;2023-02-22T01:35:01;2.03;;;0.60;;
75152;SDS011;63734;45.218;36.708;2023-02-22T01:37:29;0.98;;;0.60;;
75152;SDS011;63734;45.218;36.708;2023-02-22T01:39:58;2.15;;;0.82;;
75152;SDS011;63734;45.218;36.708;2023-02-22T01:42:24;2.60;;;0.85;;
75152;SDS011;63734;45.218;36.708;2023-02-22T01:48:17;1.23;;;0.75;;
75152;SDS011;63734;45.218;36.708;2023-02-22T01:50:46;4.28;;;0.93;;
75152;SDS011;63734;45.218;36.708;2023-02-22T01:53:34;4.32;;;1.48;;
75152;SDS011;63734;45.218;36.708;2023-02-22T01:56:04;3.20;;;0.80;;
75152;SDS011;63734;45.218;36.708;2023-02-22T01:58:31;2.45;;;0.90;;
75152;SDS011;63734;45.218;36.708;2023-02-22T02:00:59;1.20;;;0.98;;
75152;SDS011;63734;45.218;36.708;2023-02-22T02:03:27;1.27;;;0.60;;
75152;SDS011;63734;45.218;36.708;2023-02-22T02:05:59;1.27;;;0.68;;
75152;SDS011;63734;45.218;36.708;2023-02-22T02:11:19;1.70;;;0.55;;
75152;SDS011;63734;45.218;36.708;2023-02-22T02:13:48;2.42;;;1.10;;
75152;SDS011;63734;45.218;36.708;2023-02-22T02:16:16;5.25;;;1.13;;
75152;SDS011;63734;45.218;36.708;2023-02-22T02:18:43;2.70;;;1.05;;
75152;SDS011;63734;45.218;36.708;2023-02-22T02:38:15;0.50;;;0.43;;
75152;SDS011;63734;45.218;36.708;2023-02-22T02:46:28;2.03;;;0.63;;
75152;SDS011;63734;45.218;36.708;2023-02-22T02:48:58;2.22;;;0.63;;
75152;SDS011;63734;45.218;36.708;2023-02-22T02:51:37;2.35;;;0.80;;
75152;SDS011;63734;45.218;36.708;2023-02-22T02:54:07;2.08;;;0.73;;
75152;SDS011;63734;45.218;36.708;2023-02-22T02:56:34;2.83;;;1.00;;
75152;SDS011;63734;45.218;36.708;2023-02-22T02:59:00;1.90;;;0.95;;
75152;SDS011;63734;45.218;36.708;2023-02-22T03:09:50;2.92;;;0.80;;
75152;SDS011;63734;45.218;36.708;2023-02-22T03:12:35;1.00;;;0.82;;
75152;SDS011;63734;45.218;36.708;2023-02-22T03:15:12;0.93;;;0.65;;
75152;SDS011;63734;45.218;36.708;2023-02-22T03:18:06;3.17;;;0.80;;
75152;SDS011;63734;45.218;36.708;2023-02-22T03:23:47;4.07;;;1.08;;
75152;SDS011;63734;45.218;36.708;2023-02-22T03:26:26;2.88;;;1.10;;
75152;SDS011;63734;45.218;36.708;2023-02-22T03:28:58;1.48;;;0.55;;
75152;SDS011;63734;45.218;36.708;2023-02-22T03:31:31;2.40;;;1.02;;
75152;SDS011;63734;45.218;36.708;2023-02-22T03:34:10;2.22;;;0.82;;
75152;SDS011;63734;45.218;36.708;2023-02-22T03:36:48;1.23;;;1.00;;
75152;SDS011;63734;45.218;36.708;2023-02-22T03:39:20;1.27;;;1.20;;
75152;SDS011;63734;45.218;36.708;2023-02-22T03:42:03;5.28;;;1.23;;
75152;SDS011;63734;45.218;36.708;2023-02-22T03:44:34;1.42;;;0.65;;
75152;SDS011;63734;45.218;36.708;2023-02-22T03:47:05;0.68;;;0.68;;
75152;SDS011;63734;45.218;36.708;2023-02-22T03:49:36;3.05;;;0.88;;
75152;SDS011;63734;45.218;36.708;2023-02-22T03:52:11;3.08;;;1.10;;
75152;SDS011;63734;45.218;36.708;2023-02-22T03:54:38;2.97;;;1.17;;
75152;SDS011;63734;45.218;36.708;2023-02-22T03:57:07;1.50;;;0.90;;
75152;SDS011;63734;45.218;36.708;2023-02-22T03:59:41;0.82;;;0.70;;
75152;SDS011;63734;45.218;36.708;2023-02-22T04:02:08;2.80;;;0.90;;
75152;SDS011;63734;45.218;36.708;2023-02-22T04:04:34;2.08;;;0.98;;
75152;SDS011;63734;45.218;36.708;2023-02-22T04:07:01;2.95;;;1.08;;
75152;SDS011;63734;45.218;36.708;2023-02-22T04:09:28;1.48;;;0.80;;
75152;SDS011;63734;45.218;36.708;2023-02-22T04:11:54;1.90;;;0.80;;
75152;SDS011;63734;45.218;36.708;2023-02-22T04:14:20;4.72;;;1.35;;
75152;SDS011;63734;45.218;36.708;2023-02-22T04:16:47;2.85;;;1.02;;
75152;SDS011;63734;45.218;36.708;2023-02-22T04:19:13;2.53;;;0.85;;
75152;SDS011;63734;45.218;36.708;2023-02-22T04:21:39;4.45;;;1.17;;
75152;SDS011;63734;45.218;36.708;2023-02-22T04:24:11;1.95;;;0.90;;
75152;SDS011;63734;45.218;36.708;2023-02-22T04:26:41;3.10;;;0.85;;
75152;SDS011;63734;45.218;36.708;2023-02-22T04:29:07;3.17;;;1.10;;
75152;SDS011;63734;45.218;36.708;2023-02-22T04:31:37;5.75;;;1.20;;
75152;SDS011;63734;45.218;36.708;2023-02-22T04:34:03;1.05;;;0.77;;
75152;SDS011;63734;45.218;36.708;2023-02-22T04:36:34;3.60;;;1.25;;
75152;SDS011;63734;45.218;36.708;2023-02-22T04:39:00;6.80;;;0.90;;
75152;SDS011;63734;45.218;36.708;2023-02-22T04:41:28;3.03;;;0.70;;
75152;SDS011;63734;45.218;36.708;2023-02-22T04:43:56;3.65;;;0.80;;
75152;SDS011;63734;45.218;36.708;2023-02-22T04:46:24;4.25;;;1.08;;
75152;SDS011;63734;45.218;36.708;2023-02-22T04:48:51;2.65;;;0.80;;
75152;SDS011;63734;45.218;36.708;2023-02-22T04:51:20;1.77;;;0.90;;
75152;SDS011;63734;45.218;36.708;2023-02-22T04:53:54;2.70;;;1.02;;
75152;SDS011;63734;45.218;36.708;2023-02-22T04:56:20;2.15;;;1.05;;
75152;SDS011;63734;45.218;36.708;2023-02-22T04:58:46;0.93;;;0.70;;
75152;SDS011;63734;45.218;36.708;2023-02-22T05:01:13;2.33;;;0.63;;
75152;SDS011;63734;45.218;36.708;2023-02-22T05:03:41;0.57;;;0.57;;
75152;SDS011;63734;45.218;36.708;2023-02-22T05:06:08;3.45;;;1.20;;
75152;SDS011;63734;45.218;36.708;2023-02-22T05:08:36;3.17;;;1.20;;
75152;SDS011;63734;45.218;36.708;2023-02-22T05:11:02;4.47;;;1.10;;
75152;SDS011;63734;45.218;36.708;2023-02-22T05:13:29;2.10;;;0.90;;
75152;SDS011;63734;45.218;36.708;2023-02-22T05:15:56;6.38;;;1.70;;
75152;SDS011;63734;45.218;36.708;2023-02-22T05:18:22;2.33;;;1.08;;
75152;SDS011;63734;45.218;36.708;2023-02-22T05:20:48;1.40;;;0.85;;
75152;SDS011;63734;45.218;36.708;2023-02-22T05:23:14;5.45;;;1.35;;
75152;SDS011;63734;45.218;36.708;2023-02-22T05:25:40;1.58;;;1.00;;
75152;SDS011;63734;45.218;36.708;2023-02-22T05:28:13;2.25;;;1.00;;
75152;SDS011;63734;45.218;36.708;2023-02-22T05:30:40;4.10;;;1.02;;
75152;SDS011;63734;45.218;36.708;2023-02-22T05:33:07;1.35;;;1.00;;
75152;SDS011;63734;45.218;36.708;2023-02-22T05:35:34;2.80;;;0.60;;
75152;SDS011;63734;45.218;36.708;2023-02-22T05:38:01;5.65;;;1.17;;
75152;SDS011;63734;45.218;36.708;2023-02-22T05:40:29;2.33;;;1.05;;
75152;SDS011;63734;45.218;36.708;2023-02-22T05:42:56;1.83;;;1.10;;
75152;SDS011;63734;45.218;36.708;2023-02-22T05:45:23;3.22;;;1.25;;
75152;SDS011;63734;45.218;36.708;2023-02-22T05:47:50;3.90;;;1.00;;
75152;SDS011;63734;45.218;36.708;2023-02-22T05:50:18;1.52;;;0.90;;
75152;SDS011;63734;45.218;36.708;2023-02-22T05:52:45;4.88;;;1.02;;
75152;SDS011;63734;45.218;36.708;2023-02-22T05:55:16;1.85;;;1.00;;
75152;SDS011;63734;45.218;36.708;2023-02-22T05:57:43;1.38;;;0.80;;
75152;SDS011;63734;45.218;36.708;2023-02-22T06:00:10;4.22;;;1.42;;
75152;SDS011;63734;45.218;36.708;2023-02-22T06:02:41;2.33;;;1.20;;
75152;SDS011;63734;45.218;36.708;2023-02-22T06:05:07;3.88;;;0.95;;
75152;SDS011;63734;45.218;36.708;2023-02-22T06:07:33;4.18;;;1.58;;
75152;SDS011;63734;45.218;36.708;2023-02-22T06:09:59;4.63;;;1.27;;
75152;SDS011;63734;45.218;36.708;2023-02-22T06:12:25;3.35;;;1.00;;
75152;SDS011;63734;45.218;36.708;2023-02-22T06:14:51;3.47;;;1.25;;
75152;SDS011;63734;45.218;36.708;2023-02-22T06:17:17;3.42;;;1.10;;
75152;SDS011;63734;45.218;36.708;2023-02-22T06:19:44;2.47;;;1.05;;
75152;SDS011;63734;45.218;36.708;2023-02-22T06:22:18;3.42;;;1.60;;
75152;SDS011;63734;45.218;36.708;2023-02-22T06:24:44;3.05;;;1.10;;
75152;SDS011;63734;45.218;36.708;2023-02-22T06:27:10;1.40;;;1.00;;
75152;SDS011;63734;45.218;36.708;2023-02-22T06:29:37;2.75;;;1.20;;
75152;SDS011;63734;45.218;36.708;2023-02-22T06:32:03;1.55;;;1.05;;
75152;SDS011;63734;45.218;36.708;2023-02-22T06:34:29;1.58;;;1.10;;
75152;SDS011;63734;45.218;36.708;2023-02-22T06:36:55;2.05;;;0.90;;
75152;SDS011;63734;45.218;36.708;2023-02-22T06:39:21;3.92;;;1.17;;
75152;SDS011;63734;45.218;36.708;2023-02-22T06:41:48;2.42;;;1.27;;
75152;SDS011;63734;45.218;36.708;2023-02-22T06:44:24;4.28;;;1.25;;
75152;SDS011;63734;45.218;36.708;2023-02-22T06:46:50;2.35;;;0.80;;
75152;SDS011;63734;45.218;36.708;2023-02-22T06:49:18;3.83;;;1.25;;
75152;SDS011;63734;45.218;36.708;2023-02-22T06:51:44;3.28;;;0.93;;
75152;SDS011;63734;45.218;36.708;2023-02-22T06:54:12;2.75;;;1.33;;
75152;SDS011;63734;45.218;36.708;2023-02-22T06:56:38;2.25;;;1.30;;
75152;SDS011;63734;45.218;36.708;2023-02-22T06:59:04;2.38;;;1.38;;
75152;SDS011;63734;45.218;36.708;2023-02-22T07:01:30;2.83;;;1.23;;
75152;SDS011;63734;45.218;36.708;2023-02-22T07:03:56;1.90;;;1.15;;
75152;SDS011;63734;45.218;36.708;2023-02-22T07:06:22;5.25;;;1.58;;
75152;SDS011;63734;45.218;36.708;2023-02-22T07:08:48;4.07;;;1.60;;
75152;SDS011;63734;45.218;36.708;2023-02-22T07:11:14;2.22;;;1.50;;
75152;SDS011;63734;45.218;36.708;2023-02-22T07:13:41;1.33;;;1.00;;
75152;SDS011;63734;45.218;36.708;2023-02-22T07:16:07;3.65;;;1.27;;
75152;SDS011;63734;45.218;36.708;2023-02-22T07:18:33;2.33;;;1.10;;
75152;SDS011;63734;45.218;36.708;2023-02-22T07:20:59;3.95;;;1.38;;
75152;SDS011;63734;45.218;36.708;2023-02-22T07:23:26;2.88;;;1.08;;
75152;SDS011;63734;45.218;36.708;2023-02-22T07:25:52;2.08;;;1.20;;
75152;SDS011;63734;45.218;36.708;2023-02-22T07:28:18;4.30;;;1.20;;
75152;SDS011;63734;45.218;36.708;2023-02-22T07:30:44;2.55;;;1.17;;
75152;SDS011;63734;45.218;36.708;2023-02-22T07:33:10;4.95;;;1.30;;
75152;SDS011;63734;45.218;36.708;2023-02-22T07:35:38;4.80;;;1.83;;
75152;SDS011;63734;45.218;36.708;2023-02-22T07:38:11;2.38;;;1.30;;
75152;SDS011;63734;45.218;36.708;2023-02-22T07:40:40;1.65;;;1.20;;
75152;SDS011;63734;45.218;36.708;2023-02-22T07:43:17;3.58;;;1.55;;
75152;SDS011;63734;45.218;36.708;2023-02-22T07:45:45;3.28;;;1.17;;
75152;SDS011;63734;45.218;36.708;2023-02-22T07:48:13;3.72;;;1.52;;
75152;SDS011;63734;45.218;36.708;2023-02-22T07:50:40;2.13;;;1.08;;
75152;SDS011;63734;45.218;36.708;2023-02-22T07:53:12;2.55;;;1.05;;
75152;SDS011;63734;45.218;36.708;2023-02-22T07:55:40;1.73;;;1.10;;
75152;SDS011;63734;45.218;36.708;2023-02-22T07:58:07;1.52;;;0.85;;
75152;SDS011;63734;45.218;36.708;2023-02-22T08:00:34;1.58;;;1.05;;
75152;SDS011;63734;45.218;36.708;2023-02-22T08:03:04;2.45;;;1.17;;
75152;SDS011;63734;45.218;36.708;2023-02-22T08:05:35;2.75;;;0.95;;
75152;SDS011;63734;45.218;36.708;2023-02-22T08:08:03;1.58;;;1.13;;
75152;SDS011;63734;45.218;36.708;2023-02-22T08:10:30;3.00;;;1.40;;
75152;SDS011;63734;45.218;36.708;2023-02-22T08:12:57;2.63;;;1.33;;
75152;SDS011;63734;45.218;36.708;2023-02-22T08:15:25;2.80;;;1.65;;
75152;SDS011;63734;45.218;36.708;2023-02-22T08:17:57;3.42;;;1.40;;
75152;SDS011;63734;45.218;36.708;2023-02-22T08:20:25;3.78;;;1.38;;
75152;SDS011;63734;45.218;36.708;2023-02-22T08:22:53;1.40;;;1.15;;
75152;SDS011;63734;45.218;36.708;2023-02-22T08:25:21;1.80;;;1.17;;
75152;SDS011;63734;45.218;36.708;2023-02-22T08:27:50;2.95;;;1.13;;
75152;SDS011;63734;45.218;36.708;2023-02-22T08:30:17;4.18;;;1.42;;
75152;SDS011;63734;45.218;36.708;2023-02-22T08:32:47;1.35;;;1.13;;
75152;SDS011;63734;45.218;36.708;2023-02-22T08:35:15;1.45;;;1.00;;
75152;SDS011;63734;45.218;36.708;2023-02-22T08:37:43;1.63;;;0.95;;
75152;SDS011;63734;45.218;36.708;2023-02-22T08:40:10;1.58;;;0.90;;
75152;SDS011;63734;45.218;36.708;2023-02-22T08:42:37;1.92;;;1.20;;
75152;SDS011;63734;45.218;36.708;2023-02-22T08:45:06;2.75;;;1.05;;
75152;SDS011;63734;45.218;36.708;2023-02-22T08:47:33;1.52;;;1.05;;
75152;SDS011;63734;45.218;36.708;2023-02-22T08:50:00;1.85;;;1.10;;
75152;SDS011;63734;45.218;36.708;2023-02-22T08:52:26;0.98;;;0.82;;
75152;SDS011;63734;45.218;36.708;2023-02-22T08:54:52;0.80;;;0.80;;
75152;SDS011;63734;45.218;36.708;2023-02-22T08:57:20;1.10;;;0.73;;
75152;SDS011;63734;45.218;36.708;2023-02-22T08:59:46;1.90;;;1.05;;
75152;SDS011;63734;45.218;36.708;2023-02-22T09:02:13;1.85;;;0.90;;
75152;SDS011;63734;45.218;36.708;2023-02-22T09:04:40;1.13;;;0.77;;
75152;SDS011;63734;45.218;36.708;2023-02-22T09:07:07;8.02;;;1.23;;
75152;SDS011;63734;45.218;36.708;2023-02-22T09:09:33;2.63;;;1.10;;
75152;SDS011;63734;45.218;36.708;2023-02-22T09:12:00;4.38;;;1.00;;
75152;SDS011;63734;45.218;36.708;2023-02-22T09:14:27;0.65;;;0.65;;
75152;SDS011;63734;45.218;36.708;2023-02-22T09:16:53;1.10;;;0.90;;
75152;SDS011;63734;45.218;36.708;2023-02-22T09:19:19;1.45;;;0.80;;
75152;SDS011;63734;45.218;36.708;2023-02-22T09:21:51;1.15;;;0.80;;
75152;SDS011;63734;45.218;36.708;2023-02-22T09:24:18;1.35;;;0.70;;
75152;SDS011;63734;45.218;36.708;2023-02-22T09:26:45;1.45;;;0.70;;
75152;SDS011;63734;45.218;36.708;2023-02-22T09:29:12;1.55;;;1.10;;
75152;SDS011;63734;45.218;36.708;2023-02-22T09:31:38;1.73;;;0.73;;
75152;SDS011;63734;45.218;36.708;2023-02-22T09:34:06;2.22;;;1.02;;
75152;SDS011;63734;45.218;36.708;2023-02-22T09:36:43;1.45;;;1.00;;
75152;SDS011;63734;45.218;36.708;2023-02-22T09:39:11;1.65;;;1.10;;
75152;SDS011;63734;45.218;36.708;2023-02-22T09:41:49;2.75;;;1.10;;
75152;SDS011;63734;45.218;36.708;2023-02-22T09:44:43;1.40;;;1.30;;
75152;SDS011;63734;45.218;36.708;2023-02-22T09:47:19;1.30;;;1.20;;
75152;SDS011;63734;45.218;36.708;2023-02-22T09:55:23;0.93;;;0.73;;
75152;SDS011;63734;45.218;36.708;2023-02-22T09:57:55;2.53;;;0.93;;
75152;SDS011;63734;45.218;36.708;2023-02-22T10:00:26;1.58;;;1.10;;
75152;SDS011;63734;45.218;36.708;2023-02-22T10:03:14;2.35;;;1.13;;
75152;SDS011;63734;45.218;36.708;2023-02-22T10:05:48;1.70;;;1.25;;
75152;SDS011;63734;45.218;36.708;2023-02-22T10:08:18;0.70;;;0.70;;
75152;SDS011;63734;45.218;36.708;2023-02-22T10:10:45;7.78;;;1.17;;
75152;SDS011;63734;45.218;36.708;2023-02-22T10:13:26;1.70;;;1.20;;
75152;SDS011;63734;45.218;36.708;2023-02-22T10:16:08;1.30;;;1.13;;
75152;SDS011;63734;45.218;36.708;2023-02-22T10:25:17;1.43;;;1.27;;
75152;SDS011;63734;45.218;36.708;2023-02-22T10:32:58;2.67;;;1.67;;
75152;SDS011;63734;45.218;36.708;2023-02-22T10:35:27;2.75;;;1.60;;
75152;SDS011;63734;45.218;36.708;2023-02-22T10:38:18;2.55;;;1.58;;
75152;SDS011;63734;45.218;36.708;2023-02-22T10:43:41;1.80;;;1.42;;
75152;SDS011;63734;45.218;36.708;2023-02-22T10:46:11;2.63;;;1.70;;
75152;SDS011;63734;45.218;36.708;2023-02-22T10:48:41;2.38;;;1.83;;
75152;SDS011;63734;45.218;36.708;2023-02-22T10:51:10;4.90;;;1.55;;
75152;SDS011;63734;45.218;36.708;2023-02-22T10:53:36;4.38;;;1.90;;
75152;SDS011;63734;45.218;36.708;2023-02-22T10:56:05;2.47;;;1.60;;
75152;SDS011;63734;45.218;36.708;2023-02-22T11:01:20;5.25;;;1.60;;
75152;SDS011;63734;45.218;36.708;2023-02-22T11:03:57;4.38;;;1.60;;
75152;SDS011;63734;45.218;36.708;2023-02-22T11:06:42;2.88;;;1.55;;
75152;SDS011;63734;45.218;36.708;2023-02-22T11:09:14;3.10;;;1.70;;
75152;SDS011;63734;45.218;36.708;2023-02-22T11:11:46;3.25;;;1.60;;
75152;SDS011;63734;45.218;36.708;2023-02-22T11:14:24;3.95;;;2.40;;
75152;SDS011;63734;45.218;36.708;2023-02-22T11:16:56;3.78;;;1.40;;
75152;SDS011;63734;45.218;36.708;2023-02-22T11:19:24;4.45;;;2.25;;
75152;SDS011;63734;45.218;36.708;2023-02-22T11:22:12;5.68;;;2.08;;
75152;SDS011;63734;45.218;36.708;2023-02-22T11:27:22;4.95;;;2.25;;
75152;SDS011;63734;45.218;36.708;2023-02-22T11:30:07;3.22;;;1.75;;
75152;SDS011;63734;45.218;36.708;2023-02-22T11:32:57;2.75;;;1.70;;
75152;SDS011;63734;45.218;36.708;2023-02-22T11:35:30;1.48;;;1.13;;
75152;SDS011;63734;45.218;36.708;2023-02-22T11:43:50;2.85;;;1.50;;
75152;SDS011;63734;45.218;36.708;2023-02-22T11:46:21;4.28;;;1.48;;
75152;SDS011;63734;45.218;36.708;2023-02-22T11:57:41;2.17;;;1.65;;
75152;SDS011;63734;45.218;36.708;2023-02-22T12:00:41;1.77;;;1.35;;
75152;SDS011;63734;45.218;36.708;2023-02-22T12:03:34;1.40;;;1.27;;
75152;SDS011;63734;45.218;36.708;2023-02-22T12:08:54;1.88;;;1.55;;
75152;SDS011;63734;45.218;36.708;2023-02-22T12:17:08;5.50;;;1.70;;
75152;SDS011;63734;45.218;36.708;2023-02-22T12:19:57;2.10;;;1.40;;
75152;SDS011;63734;45.218;36.708;2023-02-22T12:22:32;2.03;;;1.67;;
75152;SDS011;63734;45.218;36.708;2023-02-22T12:27:31;1.80;;;1.33;;
75152;SDS011;63734;45.218;36.708;2023-02-22T12:30:09;4.80;;;1.40;;
75152;SDS011;63734;45.218;36.708;2023-02-22T12:32:59;2.50;;;1.17;;
75152;SDS011;63734;45.218;36.708;2023-02-22T12:35:43;1.52;;;0.88;;
75152;SDS011;63734;45.218;36.708;2023-02-22T12:41:32;3.63;;;1.30;;
75152;SDS011;63734;45.218;36.708;2023-02-22T12:44:09;1.83;;;1.30;;
75152;SDS011;63734;45.218;36.708;2023-02-22T12:46:43;6.97;;;2.22;;
75152;SDS011;63734;45.218;36.708;2023-02-22T12:49:35;2.17;;;1.00;;
75152;SDS011;63734;45.218;36.708;2023-02-22T12:55:11;2.10;;;1.10;;
75152;SDS011;63734;45.218;36.708;2023-02-22T12:58:24;1.92;;;1.58;;
75152;SDS011;63734;45.218;36.708;2023-02-22T13:01:02;2.38;;;1.38;;
75152;SDS011;63734;45.218;36.708;2023-02-22T13:03:37;2.15;;;1.70;;
75152;SDS011;63734;45.218;36.708;2023-02-22T13:16:59;2.55;;;1.60;;
75152;SDS011;63734;45.218;36.708;2023-02-22T13:19:50;2.88;;;1.77;;
75152;SDS011;63734;45.218;36.708;2023-02-22T13:22:47;3.35;;;1.48;;
75152;SDS011;63734;45.218;36.708;2023-02-22T13:25:23;2.50;;;1.63;;
75152;SDS011;63734;45.218;36.708;2023-02-22T13:30:41;1.48;;;1.15;;
75152;SDS011;63734;45.218;36.708;2023-02-22T13:33:24;1.40;;;1.30;;
75152;SDS011;63734;45.218;36.708;2023-02-22T13:44:28;2.28;;;1.30;;
75152;SDS011;63734;45.218;36.708;2023-02-22T13:52:22;1.88;;;1.50;;
75152;SDS011;63734;45.218;36.708;2023-02-22T13:54:53;1.50;;;1.20;;
75152;SDS011;63734;45.218;36.708;2023-02-22T13:57:36;1.35;;;1.20;;
75152;SDS011;63734;45.218;36.708;2023-02-22T14:08:07;2.92;;;1.30;;
75152;SDS011;63734;45.218;36.708;2023-02-22T14:13:25;1.95;;;1.70;;
75152;SDS011;63734;45.218;36.708;2023-02-22T14:18:23;2.20;;;1.40;;
75152;SDS011;63734;45.218;36.708;2023-02-22T14:24:10;2.63;;;1.63;;
75152;SDS011;63734;45.218;36.708;2023-02-22T14:26:40;3.90;;;1.35;;
75152;SDS011;63734;45.218;36.708;2023-02-22T14:29:20;2.95;;;1.83;;
75152;SDS011;63734;45.218;36.708;2023-02-22T14:34:20;1.73;;;1.30;;
75152;SDS011;63734;45.218;36.708;2023-02-22T14:37:32;2.55;;;1.52;;
75152;SDS011;63734;45.218;36.708;2023-02-22T14:40:24;2.10;;;1.52;;
75152;SDS011;63734;45.218;36.708;2023-02-22T14:43:12;1.92;;;0.88;;
75152;SDS011;63734;45.218;36.708;2023-02-22T14:45:49;2.72;;;1.58;;
75152;SDS011;63734;45.218;36.708;2023-02-22T14:50:49;4.07;;;1.55;;
75152;SDS011;63734;45.218;36.708;2023-02-22T14:56:04;1.67;;;1.27;;
75152;SDS011;63734;45.218;36.708;2023-02-22T15:00:59;2.83;;;1.95;;
75152;SDS011;63734;45.218;36.708;2023-02-22T15:03:45;2.70;;;1.55;;
75152;SDS011;63734;45.218;36.708;2023-02-22T15:06:24;1.27;;;1.17;;
75152;SDS011;63734;45.218;36.708;2023-02-22T15:11:51;1.67;;;1.27;;
75152;SDS011;63734;45.218;36.708;2023-02-22T15:14:37;4.32;;;1.67;;
75152;SDS011;63734;45.218;36.708;2023-02-22T15:17:12;4.95;;;2.85;;
75152;SDS011;63734;45.218;36.708;2023-02-22T15:19:49;3.33;;;1.90;;
75152;SDS011;63734;45.218;36.708;2023-02-22T15:25:03;5.00;;;2.78;;
75152;SDS011;63734;45.218;36.708;2023-02-22T15:27:31;5.40;;;2.45;;
75152;SDS011;63734;45.218;36.708;2023-02-22T15:30:05;4.30;;;1.92;;
75152;SDS011;63734;45.218;36.708;2023-02-22T15:38:00;5.70;;;3.20;;
75152;SDS011;63734;45.218;36.708;2023-02-22T15:40:31;4.75;;;2.33;;
75152;SDS011;63734;45.218;36.708;2023-02-22T15:43:05;5.78;;;2.70;;
75152;SDS011;63734;45.218;36.708;2023-02-22T15:45:35;7.50;;;2.83;;
75152;SDS011;63734;45.218;36.708;2023-02-22T15:48:09;4.85;;;3.00;;
75152;SDS011;63734;45.218;36.708;2023-02-22T15:50:36;3.05;;;2.35;;
75152;SDS011;63734;45.218;36.708;2023-02-22T15:55:48;7.15;;;3.13;;
75152;SDS011;63734;45.218;36.708;2023-02-22T15:58:22;9.50;;;3.60;;
75152;SDS011;63734;45.218;36.708;2023-02-22T16:01:15;6.75;;;3.30;;
75152;SDS011;63734;45.218;36.708;2023-02-22T16:03:49;3.58;;;2.25;;
75152;SDS011;63734;45.218;36.708;2023-02-22T16:06:30;3.80;;;2.30;;
75152;SDS011;63734;45.218;36.708;2023-02-22T16:11:36;3.60;;;2.40;;
75152;SDS011;63734;45.218;36.708;2023-02-22T16:22:49;3.88;;;2.25;;
75152;SDS011;63734;45.218;36.708;2023-02-22T16:27:45;3.83;;;2.50;;
75152;SDS011;63734;45.218;36.708;2023-02-22T16:32:45;4.20;;;2.58;;
75152;SDS011;63734;45.218;36.708;2023-02-22T16:35:14;3.67;;;2.60;;
75152;SDS011;63734;45.218;36.708;2023-02-22T16:40:21;3.67;;;2.20;;
75152;SDS011;63734;45.218;36.708;2023-02-22T16:42:50;3.22;;;2.45;;
75152;SDS011;63734;45.218;36.708;2023-02-22T16:45:20;2.65;;;2.10;;
75152;SDS011;63734;45.218;36.708;2023-02-22T16:47:47;4.70;;;2.58;;
75152;SDS011;63734;45.218;36.708;2023-02-22T16:50:18;3.72;;;2.45;;
75152;SDS011;63734;45.218;36.708;2023-02-22T16:52:46;6.30;;;2.78;;
75152;SDS011;63734;45.218;36.708;2023-02-22T16:55:13;5.25;;;2.92;;
75152;SDS011;63734;45.218;36.708;2023-02-22T16:57:41;3.65;;;2.60;;
75152;SDS011;63734;45.218;36.708;2023-02-22T17:00:18;4.65;;;2.97;;
75152;SDS011;63734;45.218;36.708;2023-02-22T17:03:02;5.32;;;3.20;;
75152;SDS011;63734;45.218;36.708;2023-02-22T17:05:30;6.65;;;3.38;;
75152;SDS011;63734;45.218;36.708;2023-02-22T17:08:00;5.50;;;3.28;;
75152;SDS011;63734;45.218;36.708;2023-02-22T17:10:27;7.13;;;3.33;;
75152;SDS011;63734;45.218;36.708;2023-02-22T17:12:53;6.88;;;3.35;;
75152;SDS011;63734;45.218;36.708;2023-02-22T17:15:25;5.68;;;2.95;;
75152;SDS011;63734;45.218;36.708;2023-02-22T17:17:55;7.70;;;4.10;;
75152;SDS011;63734;45.218;36.708;2023-02-22T17:20:22;9.77;;;5.57;;
75152;SDS011;63734;45.218;36.708;2023-02-22T17:22:58;4.97;;;3.72;;
75152;SDS011;63734;45.218;36.708;2023-02-22T17:25:51;5.28;;;3.05;;
75152;SDS011;63734;45.218;36.708;2023-02-22T17:28:20;5.68;;;3.08;;
75152;SDS011;63734;45.218;36.708;2023-02-22T17:30:49;5.55;;;3.17;;
75152;SDS011;63734;45.218;36.708;2023-02-22T17:33:17;4.32;;;2.88;;
75152;SDS011;63734;45.218;36.708;2023-02-22T17:35:45;4.03;;;2.75;;
75152;SDS011;63734;45.218;36.708;2023-02-22T17:38:12;6.47;;;2.70;;
75152;SDS011;63734;45.218;36.708;2023-02-22T17:40:43;6.72;;;2.88;;
75152;SDS011;63734;45.218;36.708;2023-02-22T17:43:13;4.20;;;2.67;;
75152;SDS011;63734;45.218;36.708;2023-02-22T17:45:40;5.10;;;3.47;;
75152;SDS011;63734;45.218;36.708;2023-02-22T17:48:07;6.10;;;3.42;;
75152;SDS011;63734;45.218;36.708;2023-02-22T17:50:37;4.82;;;3.13;;
75152;SDS011;63734;45.218;36.708;2023-02-22T17:53:04;4.85;;;3.10;;
75152;SDS011;63734;45.218;36.708;2023-02-22T17:55:31;7.10;;;3.75;;
75152;SDS011;63734;45.218;36.708;2023-02-22T17:57:58;6.20;;;3.85;;
75152;SDS011;63734;45.218;36.708;2023-02-22T18:00:25;7.55;;;3.35;;